This is the latest recevied weather packets stored in our database for station/object SQ2HCW-13. If no packets are shown the sender has not sent any weather packets the latest 10 day(s).
| Time | Temp. | Humidity | Pressure | Rain* | Wind** | Luminosity | Snow |
|---|---|---|---|---|---|---|---|
| 1778022918 | 10.56° C | 99% | 993 hPa | 0 mm | - | - | - |
| 1778022374 | 10.56° C | 99% | 993.1 hPa | 0 mm | - | - | - |
| 1778021162 | 10.56° C | 99% | 992.9 hPa | 0 mm | - | - | - |
| 1778020554 | 10.56° C | 99% | 992.9 hPa | 0 mm | - | - | - |
| 1778015765 | 10.56° C | 99% | 993 hPa | 0 mm | - | - | - |
| 1778013951 | 10.56° C | 97% | 993.2 hPa | 0 mm | - | - | - |
| 1778012739 | 10.56° C | 95% | 993.3 hPa | 0 mm | - | - | - |
| 1778012150 | 11.11° C | 95% | 993.4 hPa | 0 mm | - | - | - |
| 1778011526 | 11.11° C | 94% | 993.4 hPa | 0 mm | - | - | - |
| 1778010374 | 11.11° C | 91% | 993.4 hPa | 0 mm | - | - | - |
| 1778008554 | 11.67° C | 89% | 993.6 hPa | 0 mm | - | - | - |
| 1778002553 | 13.89° C | 83% | 992.9 hPa | 0 mm | - | - | - |
| 1778001950 | 13.89° C | 82% | 993 hPa | 0 mm | - | - | - |
| 1778001341 | 13.89° C | 83% | 993 hPa | 0 mm | - | - | - |
| 1777998917 | 14.44° C | 80% | 993.1 hPa | 0 mm | - | - | - |
| 1777992937 | 16.67° C | 67% | 993.5 hPa | 0 mm | - | - | - |
| 1777956664 | 12.22° C | 92% | 996.8 hPa | 0 mm | - | - | - |
| 1777955453 | 12.22° C | 94% | 996.6 hPa | 0 mm | - | - | - |
| 1777954849 | 11.67° C | 94% | 996.7 hPa | 0 mm | - | - | - |
| 1777949453 | 10.56° C | 89% | 996.6 hPa | 0 mm | - | - | - |
| 1777948242 | 11.67° C | 88% | 996.6 hPa | 0 mm | - | - | - |
| 1777942851 | 12.78° C | 84% | 996.9 hPa | 0 mm | - | - | - |
| 1777941037 | 12.78° C | 84% | 996.9 hPa | 0 mm | - | - | - |
| 1777938063 | 12.78° C | 80% | 997 hPa | 0 mm | - | - | - |
| 1777935036 | 14.44° C | 79% | 997.1 hPa | 0 mm | - | - | - |
* Rain latest hour (hover to see other rain measurements)
** Current wind speed in m/s (hover to see current wind gust speed)